sensor_id;sensor_type;location;lat;lon;timestamp;temperature;humidity
63013;DHT22;62113;45.624;11.700;2023-04-23T00:01:30;18.10;62.70
63013;DHT22;62113;45.624;11.700;2023-04-23T00:03:59;18.10;62.90
63013;DHT22;62113;45.624;11.700;2023-04-23T00:06:27;18.10;62.60
63013;DHT22;62113;45.624;11.700;2023-04-23T00:08:56;18.00;62.90
63013;DHT22;62113;45.624;11.700;2023-04-23T00:11:24;18.00;62.90
63013;DHT22;62113;45.624;11.700;2023-04-23T00:13:50;17.90;63.20
63013;DHT22;62113;45.624;11.700;2023-04-23T00:16:17;17.80;64.00
63013;DHT22;62113;45.624;11.700;2023-04-23T00:18:42;17.70;64.30
63013;DHT22;62113;45.624;11.700;2023-04-23T00:21:08;17.60;64.00
63013;DHT22;62113;45.624;11.700;2023-04-23T00:23:34;17.60;64.00
63013;DHT22;62113;45.624;11.700;2023-04-23T00:25:59;17.60;64.00
63013;DHT22;62113;45.624;11.700;2023-04-23T00:28:25;17.60;63.90
63013;DHT22;62113;45.624;11.700;2023-04-23T00:30:51;17.70;63.90
63013;DHT22;62113;45.624;11.700;2023-04-23T00:33:17;17.70;63.90
63013;DHT22;62113;45.624;11.700;2023-04-23T00:35:42;17.70;63.80
63013;DHT22;62113;45.624;11.700;2023-04-23T00:38:08;17.80;63.70
63013;DHT22;62113;45.624;11.700;2023-04-23T00:40:34;17.80;63.70
63013;DHT22;62113;45.624;11.700;2023-04-23T00:43:00;17.80;63.60
63013;DHT22;62113;45.624;11.700;2023-04-23T00:45:25;17.90;63.50
63013;DHT22;62113;45.624;11.700;2023-04-23T00:47:52;17.80;63.40
63013;DHT22;62113;45.624;11.700;2023-04-23T00:50:18;17.80;63.30
63013;DHT22;62113;45.624;11.700;2023-04-23T00:52:45;17.80;63.30
63013;DHT22;62113;45.624;11.700;2023-04-23T00:55:10;17.80;63.30
63013;DHT22;62113;45.624;11.700;2023-04-23T00:57:37;17.80;63.30
63013;DHT22;62113;45.624;11.700;2023-04-23T01:00:06;17.80;63.20
63013;DHT22;62113;45.624;11.700;2023-04-23T01:02:33;17.80;63.20
63013;DHT22;62113;45.624;11.700;2023-04-23T01:05:02;17.80;63.30
63013;DHT22;62113;45.624;11.700;2023-04-23T01:07:28;17.80;63.20
63013;DHT22;62113;45.624;11.700;2023-04-23T01:09:54;17.80;63.20
63013;DHT22;62113;45.624;11.700;2023-04-23T01:12:20;17.70;63.30
63013;DHT22;62113;45.624;11.700;2023-04-23T01:14:45;17.70;63.30
63013;DHT22;62113;45.624;11.700;2023-04-23T01:17:12;17.70;63.30
63013;DHT22;62113;45.624;11.700;2023-04-23T01:19:38;17.70;63.30
63013;DHT22;62113;45.624;11.700;2023-04-23T01:22:14;17.70;63.40
63013;DHT22;62113;45.624;11.700;2023-04-23T01:24:41;17.70;63.40
63013;DHT22;62113;45.624;11.700;2023-04-23T01:27:07;17.70;63.40
63013;DHT22;62113;45.624;11.700;2023-04-23T01:29:33;17.70;63.50
63013;DHT22;62113;45.624;11.700;2023-04-23T01:32:00;17.70;63.50
63013;DHT22;62113;45.624;11.700;2023-04-23T01:34:26;17.70;63.40
63013;DHT22;62113;45.624;11.700;2023-04-23T01:36:53;17.70;63.40
63013;DHT22;62113;45.624;11.700;2023-04-23T01:39:18;17.70;63.40
63013;DHT22;62113;45.624;11.700;2023-04-23T01:41:45;17.70;63.50
63013;DHT22;62113;45.624;11.700;2023-04-23T01:44:11;17.70;63.50
63013;DHT22;62113;45.624;11.700;2023-04-23T01:46:37;17.60;63.50
63013;DHT22;62113;45.624;11.700;2023-04-23T01:49:02;17.60;63.50
63013;DHT22;62113;45.624;11.700;2023-04-23T01:51:29;17.60;63.50
63013;DHT22;62113;45.624;11.700;2023-04-23T01:53:55;17.60;63.50
63013;DHT22;62113;45.624;11.700;2023-04-23T01:56:24;17.60;63.60
63013;DHT22;62113;45.624;11.700;2023-04-23T01:58:51;17.50;63.60
63013;DHT22;62113;45.624;11.700;2023-04-23T02:01:17;17.50;63.50
63013;DHT22;62113;45.624;11.700;2023-04-23T02:03:43;17.50;63.40
63013;DHT22;62113;45.624;11.700;2023-04-23T02:06:10;17.50;63.40
63013;DHT22;62113;45.624;11.700;2023-04-23T02:08:36;17.40;63.40
63013;DHT22;62113;45.624;11.700;2023-04-23T02:11:02;17.40;63.40
63013;DHT22;62113;45.624;11.700;2023-04-23T02:13:27;17.40;63.40
63013;DHT22;62113;45.624;11.700;2023-04-23T02:15:53;17.40;63.40
63013;DHT22;62113;45.624;11.700;2023-04-23T02:18:18;17.40;63.40
63013;DHT22;62113;45.624;11.700;2023-04-23T02:20:44;17.30;63.40
63013;DHT22;62113;45.624;11.700;2023-04-23T02:23:10;17.30;63.40
63013;DHT22;62113;45.624;11.700;2023-04-23T02:25:36;17.30;63.40
63013;DHT22;62113;45.624;11.700;2023-04-23T02:28:06;17.30;63.50
63013;DHT22;62113;45.624;11.700;2023-04-23T02:30:33;17.30;63.50
63013;DHT22;62113;45.624;11.700;2023-04-23T02:32:59;17.20;63.50
63013;DHT22;62113;45.624;11.700;2023-04-23T02:35:25;17.20;63.60
63013;DHT22;62113;45.624;11.700;2023-04-23T02:37:53;17.20;63.50
63013;DHT22;62113;45.624;11.700;2023-04-23T02:40:19;17.20;63.60
63013;DHT22;62113;45.624;11.700;2023-04-23T02:42:44;17.20;63.70
63013;DHT22;62113;45.624;11.700;2023-04-23T02:45:10;17.20;63.70
63013;DHT22;62113;45.624;11.700;2023-04-23T02:47:36;17.20;63.80
63013;DHT22;62113;45.624;11.700;2023-04-23T02:50:02;17.20;63.80
63013;DHT22;62113;45.624;11.700;2023-04-23T02:52:30;17.10;63.80
63013;DHT22;62113;45.624;11.700;2023-04-23T02:54:55;17.10;63.80
63013;DHT22;62113;45.624;11.700;2023-04-23T02:57:21;17.10;63.90
63013;DHT22;62113;45.624;11.700;2023-04-23T02:59:47;17.10;63.90
63013;DHT22;62113;45.624;11.700;2023-04-23T03:02:14;17.10;63.80
63013;DHT22;62113;45.624;11.700;2023-04-23T03:04:40;17.10;63.90
63013;DHT22;62113;45.624;11.700;2023-04-23T03:07:06;17.10;63.90
63013;DHT22;62113;45.624;11.700;2023-04-23T03:09:31;17.10;63.90
63013;DHT22;62113;45.624;11.700;2023-04-23T03:11:57;17.00;63.90
63013;DHT22;62113;45.624;11.700;2023-04-23T03:14:23;17.00;63.90
63013;DHT22;62113;45.624;11.700;2023-04-23T03:16:48;17.00;63.90
63013;DHT22;62113;45.624;11.700;2023-04-23T03:19:14;17.00;64.00
63013;DHT22;62113;45.624;11.700;2023-04-23T03:21:40;17.00;64.00
63013;DHT22;62113;45.624;11.700;2023-04-23T03:24:05;16.90;64.00
63013;DHT22;62113;45.624;11.700;2023-04-23T03:26:31;16.90;64.00
63013;DHT22;62113;45.624;11.700;2023-04-23T03:28:56;16.90;64.10
63013;DHT22;62113;45.624;11.700;2023-04-23T03:31:22;16.90;64.10
63013;DHT22;62113;45.624;11.700;2023-04-23T03:33:48;16.90;64.10
63013;DHT22;62113;45.624;11.700;2023-04-23T03:36:13;16.80;64.20
63013;DHT22;62113;45.624;11.700;2023-04-23T03:38:40;16.80;64.20
63013;DHT22;62113;45.624;11.700;2023-04-23T03:41:05;16.80;64.20
63013;DHT22;62113;45.624;11.700;2023-04-23T03:43:31;16.80;64.30
63013;DHT22;62113;45.624;11.700;2023-04-23T03:45:56;16.80;64.30
63013;DHT22;62113;45.624;11.700;2023-04-23T03:48:22;16.80;64.30
63013;DHT22;62113;45.624;11.700;2023-04-23T03:50:48;16.70;64.30
63013;DHT22;62113;45.624;11.700;2023-04-23T03:53:14;16.70;64.40
63013;DHT22;62113;45.624;11.700;2023-04-23T03:55:39;16.70;64.50
63013;DHT22;62113;45.624;11.700;2023-04-23T03:58:05;16.70;64.50
63013;DHT22;62113;45.624;11.700;2023-04-23T04:00:31;16.70;64.50
63013;DHT22;62113;45.624;11.700;2023-04-23T04:02:56;16.70;64.60
63013;DHT22;62113;45.624;11.700;2023-04-23T04:05:22;16.70;64.70
63013;DHT22;62113;45.624;11.700;2023-04-23T04:07:48;16.70;64.70
63013;DHT22;62113;45.624;11.700;2023-04-23T04:10:13;16.70;64.70
63013;DHT22;62113;45.624;11.700;2023-04-23T04:12:39;16.80;64.70
63013;DHT22;62113;45.624;11.700;2023-04-23T04:15:06;16.80;64.70
63013;DHT22;62113;45.624;11.700;2023-04-23T04:17:32;16.80;64.70
63013;DHT22;62113;45.624;11.700;2023-04-23T04:19:57;16.90;64.60
63013;DHT22;62113;45.624;11.700;2023-04-23T04:22:23;16.80;64.60
63013;DHT22;62113;45.624;11.700;2023-04-23T04:24:49;16.90;64.60
63013;DHT22;62113;45.624;11.700;2023-04-23T04:27:16;16.90;64.60
63013;DHT22;62113;45.624;11.700;2023-04-23T04:29:42;16.90;64.60
63013;DHT22;62113;45.624;11.700;2023-04-23T04:32:08;16.90;64.70
63013;DHT22;62113;45.624;11.700;2023-04-23T04:34:34;16.90;64.80
63013;DHT22;62113;45.624;11.700;2023-04-23T04:37:03;16.90;64.80
63013;DHT22;62113;45.624;11.700;2023-04-23T04:39:29;16.90;64.80
63013;DHT22;62113;45.624;11.700;2023-04-23T04:41:55;16.90;64.90
63013;DHT22;62113;45.624;11.700;2023-04-23T04:44:21;17.00;64.90
63013;DHT22;62113;45.624;11.700;2023-04-23T04:46:47;17.00;64.90
63013;DHT22;62113;45.624;11.700;2023-04-23T04:49:12;17.00;64.90
63013;DHT22;62113;45.624;11.700;2023-04-23T04:51:39;17.00;65.00
63013;DHT22;62113;45.624;11.700;2023-04-23T04:54:05;17.10;64.90
63013;DHT22;62113;45.624;11.700;2023-04-23T04:56:32;17.10;65.00
63013;DHT22;62113;45.624;11.700;2023-04-23T04:58:58;17.10;65.00
63013;DHT22;62113;45.624;11.700;2023-04-23T05:01:25;17.10;64.90
63013;DHT22;62113;45.624;11.700;2023-04-23T05:03:51;17.20;64.90
63013;DHT22;62113;45.624;11.700;2023-04-23T05:06:18;17.20;64.90
63013;DHT22;62113;45.624;11.700;2023-04-23T05:08:43;17.20;64.80
63013;DHT22;62113;45.624;11.700;2023-04-23T05:11:13;17.30;64.80
63013;DHT22;62113;45.624;11.700;2023-04-23T05:13:39;17.30;64.70
63013;DHT22;62113;45.624;11.700;2023-04-23T05:16:05;17.40;64.70
63013;DHT22;62113;45.624;11.700;2023-04-23T05:18:31;17.40;64.60
63013;DHT22;62113;45.624;11.700;2023-04-23T05:20:57;17.50;64.50
63013;DHT22;62113;45.624;11.700;2023-04-23T05:23:22;17.60;64.40
63013;DHT22;62113;45.624;11.700;2023-04-23T05:25:48;17.70;64.30
63013;DHT22;62113;45.624;11.700;2023-04-23T05:28:16;17.70;64.20
63013;DHT22;62113;45.624;11.700;2023-04-23T05:30:42;17.90;64.00
63013;DHT22;62113;45.624;11.700;2023-04-23T05:33:07;18.00;63.90
63013;DHT22;62113;45.624;11.700;2023-04-23T05:35:33;18.10;63.70
63013;DHT22;62113;45.624;11.700;2023-04-23T05:37:59;18.20;63.50
63013;DHT22;62113;45.624;11.700;2023-04-23T05:40:25;18.20;63.40
63013;DHT22;62113;45.624;11.700;2023-04-23T05:42:51;18.30;63.00
63013;DHT22;62113;45.624;11.700;2023-04-23T05:45:17;18.30;63.00
63013;DHT22;62113;45.624;11.700;2023-04-23T05:47:42;18.40;62.90
63013;DHT22;62113;45.624;11.700;2023-04-23T05:50:08;18.40;62.80
63013;DHT22;62113;45.624;11.700;2023-04-23T05:52:35;18.50;62.60
63013;DHT22;62113;45.624;11.700;2023-04-23T05:55:02;18.50;62.40
63013;DHT22;62113;45.624;11.700;2023-04-23T05:57:28;18.60;62.20
63013;DHT22;62113;45.624;11.700;2023-04-23T05:59:53;18.60;62.00
63013;DHT22;62113;45.624;11.700;2023-04-23T06:02:19;18.60;61.80
63013;DHT22;62113;45.624;11.700;2023-04-23T06:04:44;18.60;61.90
63013;DHT22;62113;45.624;11.700;2023-04-23T06:07:10;18.60;61.90
63013;DHT22;62113;45.624;11.700;2023-04-23T06:09:37;18.70;61.90
63013;DHT22;62113;45.624;11.700;2023-04-23T06:12:02;18.70;61.80
63013;DHT22;62113;45.624;11.700;2023-04-23T06:14:28;18.70;61.90
63013;DHT22;62113;45.624;11.700;2023-04-23T06:16:54;18.90;62.10
63013;DHT22;62113;45.624;11.700;2023-04-23T06:19:19;19.30;62.00
63013;DHT22;62113;45.624;11.700;2023-04-23T06:21:45;20.10;62.00
63013;DHT22;62113;45.624;11.700;2023-04-23T06:24:11;21.20;61.30
63013;DHT22;62113;45.624;11.700;2023-04-23T06:26:36;22.30;55.70
63013;DHT22;62113;45.624;11.700;2023-04-23T06:29:02;23.20;53.50
63013;DHT22;62113;45.624;11.700;2023-04-23T06:31:27;24.20;51.70
63013;DHT22;62113;45.624;11.700;2023-04-23T06:33:53;25.20;51.40
63013;DHT22;62113;45.624;11.700;2023-04-23T06:36:19;26.20;48.70
63013;DHT22;62113;45.624;11.700;2023-04-23T06:38:44;26.80;46.10
63013;DHT22;62113;45.624;11.700;2023-04-23T06:41:10;27.60;43.00
63013;DHT22;62113;45.624;11.700;2023-04-23T06:43:37;28.20;41.80
63013;DHT22;62113;45.624;11.700;2023-04-23T06:46:03;28.80;40.60
63013;DHT22;62113;45.624;11.700;2023-04-23T06:48:29;28.80;39.80
63013;DHT22;62113;45.624;11.700;2023-04-23T06:50:56;28.70;39.30
63013;DHT22;62113;45.624;11.700;2023-04-23T06:53:22;28.60;38.90
63013;DHT22;62113;45.624;11.700;2023-04-23T06:55:48;28.30;39.10
63013;DHT22;62113;45.624;11.700;2023-04-23T06:58:16;28.00;40.10
63013;DHT22;62113;45.624;11.700;2023-04-23T07:00:41;27.80;40.70
63013;DHT22;62113;45.624;11.700;2023-04-23T07:03:07;28.00;41.50
63013;DHT22;62113;45.624;11.700;2023-04-23T07:05:32;28.80;41.00
63013;DHT22;62113;45.624;11.700;2023-04-23T07:07:58;29.50;39.90
63013;DHT22;62113;45.624;11.700;2023-04-23T07:10:24;30.00;38.10
63013;DHT22;62113;45.624;11.700;2023-04-23T07:12:49;30.60;37.10
63013;DHT22;62113;45.624;11.700;2023-04-23T07:15:15;31.20;35.70
63013;DHT22;62113;45.624;11.700;2023-04-23T07:17:41;31.60;35.40
63013;DHT22;62113;45.624;11.700;2023-04-23T07:20:07;31.80;33.70
63013;DHT22;62113;45.624;11.700;2023-04-23T07:22:33;32.00;33.50
63013;DHT22;62113;45.624;11.700;2023-04-23T07:24:59;32.40;33.70
63013;DHT22;62113;45.624;11.700;2023-04-23T07:27:25;32.70;33.30
63013;DHT22;62113;45.624;11.700;2023-04-23T07:29:50;32.20;31.10
63013;DHT22;62113;45.624;11.700;2023-04-23T07:32:16;31.70;32.20
63013;DHT22;62113;45.624;11.700;2023-04-23T07:34:42;31.00;33.00
63013;DHT22;62113;45.624;11.700;2023-04-23T07:37:08;30.40;33.60
63013;DHT22;62113;45.624;11.700;2023-04-23T07:39:33;29.60;34.40
63013;DHT22;62113;45.624;11.700;2023-04-23T07:41:59;28.80;34.80
63013;DHT22;62113;45.624;11.700;2023-04-23T07:44:26;28.20;36.10
63013;DHT22;62113;45.624;11.700;2023-04-23T07:46:52;27.60;37.10
63013;DHT22;62113;45.624;11.700;2023-04-23T07:49:17;27.00;38.10
63013;DHT22;62113;45.624;11.700;2023-04-23T07:51:43;26.40;39.20
63013;DHT22;62113;45.624;11.700;2023-04-23T07:54:09;26.00;39.80
63013;DHT22;62113;45.624;11.700;2023-04-23T07:56:34;25.70;40.50
63013;DHT22;62113;45.624;11.700;2023-04-23T07:59:01;25.30;41.10
63013;DHT22;62113;45.624;11.700;2023-04-23T08:01:27;25.00;42.10
63013;DHT22;62113;45.624;11.700;2023-04-23T08:03:52;24.70;42.70
63013;DHT22;62113;45.624;11.700;2023-04-23T08:06:20;24.50;43.20
63013;DHT22;62113;45.624;11.700;2023-04-23T08:08:46;24.30;44.00
63013;DHT22;62113;45.624;11.700;2023-04-23T08:11:12;24.20;44.40
63013;DHT22;62113;45.624;11.700;2023-04-23T08:13:37;24.00;45.00
63013;DHT22;62113;45.624;11.700;2023-04-23T08:16:03;23.90;45.20
63013;DHT22;62113;45.624;11.700;2023-04-23T08:18:29;23.70;45.50
63013;DHT22;62113;45.624;11.700;2023-04-23T08:20:54;23.70;46.30
63013;DHT22;62113;45.624;11.700;2023-04-23T08:23:23;23.50;46.90
63013;DHT22;62113;45.624;11.700;2023-04-23T08:25:49;23.40;47.00
63013;DHT22;62113;45.624;11.700;2023-04-23T08:28:15;23.20;46.80
63013;DHT22;62113;45.624;11.700;2023-04-23T08:30:40;23.30;47.20
63013;DHT22;62113;45.624;11.700;2023-04-23T08:33:06;23.30;46.90
63013;DHT22;62113;45.624;11.700;2023-04-23T08:35:32;23.40;46.90
63013;DHT22;62113;45.624;11.700;2023-04-23T08:37:57;23.50;46.80
63013;DHT22;62113;45.624;11.700;2023-04-23T08:40:24;23.50;45.90
63013;DHT22;62113;45.624;11.700;2023-04-23T08:43:00;23.50;46.30
63013;DHT22;62113;45.624;11.700;2023-04-23T08:45:26;23.30;46.80
63013;DHT22;62113;45.624;11.700;2023-04-23T08:47:57;23.20;46.70
63013;DHT22;62113;45.624;11.700;2023-04-23T08:50:24;23.20;46.50
63013;DHT22;62113;45.624;11.700;2023-04-23T08:52:53;23.30;46.20
63013;DHT22;62113;45.624;11.700;2023-04-23T08:55:20;23.20;46.20
63013;DHT22;62113;45.624;11.700;2023-04-23T08:57:47;23.20;46.20
63013;DHT22;62113;45.624;11.700;2023-04-23T09:00:15;23.20;46.20
63013;DHT22;62113;45.624;11.700;2023-04-23T09:02:46;23.20;46.20
63013;DHT22;62113;45.624;11.700;2023-04-23T09:05:12;23.30;45.40
63013;DHT22;62113;45.624;11.700;2023-04-23T09:07:38;23.40;45.70
63013;DHT22;62113;45.624;11.700;2023-04-23T09:10:06;23.60;45.80
63013;DHT22;62113;45.624;11.700;2023-04-23T09:12:34;23.70;45.70
63013;DHT22;62113;45.624;11.700;2023-04-23T09:15:01;23.80;45.50
63013;DHT22;62113;45.624;11.700;2023-04-23T09:17:28;23.90;45.80
63013;DHT22;62113;45.624;11.700;2023-04-23T09:19:55;24.00;45.50
63013;DHT22;62113;45.624;11.700;2023-04-23T09:25:09;24.20;46.00
63013;DHT22;62113;45.624;11.700;2023-04-23T09:27:35;24.30;46.10
63013;DHT22;62113;45.624;11.700;2023-04-23T09:30:03;24.40;45.70
63013;DHT22;62113;45.624;11.700;2023-04-23T09:32:36;24.30;45.50
63013;DHT22;62113;45.624;11.700;2023-04-23T09:35:03;24.30;45.40
63013;DHT22;62113;45.624;11.700;2023-04-23T09:37:30;24.30;45.30
63013;DHT22;62113;45.624;11.700;2023-04-23T09:40:03;24.40;44.60
63013;DHT22;62113;45.624;11.700;2023-04-23T09:42:30;24.40;43.80
63013;DHT22;62113;45.624;11.700;2023-04-23T09:44:59;24.40;43.90
63013;DHT22;62113;45.624;11.700;2023-04-23T09:47:25;24.50;44.00
63013;DHT22;62113;45.624;11.700;2023-04-23T09:49:51;24.60;44.40
63013;DHT22;62113;45.624;11.700;2023-04-23T09:52:17;24.70;44.60
63013;DHT22;62113;45.624;11.700;2023-04-23T09:54:43;24.70;44.40
63013;DHT22;62113;45.624;11.700;2023-04-23T09:57:11;24.60;45.00
63013;DHT22;62113;45.624;11.700;2023-04-23T09:59:36;24.60;45.40
63013;DHT22;62113;45.624;11.700;2023-04-23T10:02:05;24.50;45.40
63013;DHT22;62113;45.624;11.700;2023-04-23T10:04:31;24.30;45.00
63013;DHT22;62113;45.624;11.700;2023-04-23T10:06:58;24.30;45.70
63013;DHT22;62113;45.624;11.700;2023-04-23T10:09:25;24.30;45.30
63013;DHT22;62113;45.624;11.700;2023-04-23T10:11:53;24.40;45.90
63013;DHT22;62113;45.624;11.700;2023-04-23T10:14:22;24.30;45.30
63013;DHT22;62113;45.624;11.700;2023-04-23T10:16:56;24.20;45.20
63013;DHT22;62113;45.624;11.700;2023-04-23T10:19:23;24.00;45.20
63013;DHT22;62113;45.624;11.700;2023-04-23T10:21:53;23.90;45.70
63013;DHT22;62113;45.624;11.700;2023-04-23T10:24:25;24.00;46.80
63013;DHT22;62113;45.624;11.700;2023-04-23T10:26:55;24.10;46.70
63013;DHT22;62113;45.624;11.700;2023-04-23T10:29:26;24.20;46.30
63013;DHT22;62113;45.624;11.700;2023-04-23T10:31:54;24.30;46.70
63013;DHT22;62113;45.624;11.700;2023-04-23T10:34:20;24.50;47.10
63013;DHT22;62113;45.624;11.700;2023-04-23T10:36:48;24.50;46.00
63013;DHT22;62113;45.624;11.700;2023-04-23T10:39:15;24.50;44.90
63013;DHT22;62113;45.624;11.700;2023-04-23T10:41:42;24.50;44.30
63013;DHT22;62113;45.624;11.700;2023-04-23T10:44:12;24.40;44.00
63013;DHT22;62113;45.624;11.700;2023-04-23T10:46:38;24.30;43.80
63013;DHT22;62113;45.624;11.700;2023-04-23T10:49:12;24.40;44.40
63013;DHT22;62113;45.624;11.700;2023-04-23T10:51:41;24.50;44.70
63013;DHT22;62113;45.624;11.700;2023-04-23T10:54:09;24.40;44.10
63013;DHT22;62113;45.624;11.700;2023-04-23T10:56:39;24.40;44.60
63013;DHT22;62113;45.624;11.700;2023-04-23T10:59:20;24.40;44.40
63013;DHT22;62113;45.624;11.700;2023-04-23T11:01:49;24.40;43.50
63013;DHT22;62113;45.624;11.700;2023-04-23T11:04:19;24.30;44.00
63013;DHT22;62113;45.624;11.700;2023-04-23T11:06:50;24.20;43.80
63013;DHT22;62113;45.624;11.700;2023-04-23T11:12:00;24.00;43.30
63013;DHT22;62113;45.624;11.700;2023-04-23T11:14:53;23.90;45.20
63013;DHT22;62113;45.624;11.700;2023-04-23T11:20:05;24.00;44.50
63013;DHT22;62113;45.624;11.700;2023-04-23T11:22:35;24.10;44.20
63013;DHT22;62113;45.624;11.700;2023-04-23T11:25:01;24.00;44.20
63013;DHT22;62113;45.624;11.700;2023-04-23T11:27:29;24.10;43.20
63013;DHT22;62113;45.624;11.700;2023-04-23T11:29:55;24.10;42.50
63013;DHT22;62113;45.624;11.700;2023-04-23T11:32:21;24.10;42.00
63013;DHT22;62113;45.624;11.700;2023-04-23T11:34:47;23.90;42.50
63013;DHT22;62113;45.624;11.700;2023-04-23T11:37:14;23.90;41.40
63013;DHT22;62113;45.624;11.700;2023-04-23T11:39:41;23.90;41.90
63013;DHT22;62113;45.624;11.700;2023-04-23T11:42:12;24.00;41.20
63013;DHT22;62113;45.624;11.700;2023-04-23T11:44:39;24.10;41.70
63013;DHT22;62113;45.624;11.700;2023-04-23T11:47:12;24.20;41.90
63013;DHT22;62113;45.624;11.700;2023-04-23T11:49:39;24.20;41.20
63013;DHT22;62113;45.624;11.700;2023-04-23T11:52:07;24.20;41.10
63013;DHT22;62113;45.624;11.700;2023-04-23T11:54:33;24.30;41.00
63013;DHT22;62113;45.624;11.700;2023-04-23T11:56:59;24.40;41.50
63013;DHT22;62113;45.624;11.700;2023-04-23T11:59:26;24.40;40.90
63013;DHT22;62113;45.624;11.700;2023-04-23T12:01:56;24.60;40.90
63013;DHT22;62113;45.624;11.700;2023-04-23T12:04:28;24.60;41.00
63013;DHT22;62113;45.624;11.700;2023-04-23T12:06:55;24.70;40.70
63013;DHT22;62113;45.624;11.700;2023-04-23T12:09:21;24.70;40.50
63013;DHT22;62113;45.624;11.700;2023-04-23T12:11:47;24.60;39.40
63013;DHT22;62113;45.624;11.700;2023-04-23T12:14:16;24.60;39.00
63013;DHT22;62113;45.624;11.700;2023-04-23T12:16:44;24.60;38.20
63013;DHT22;62113;45.624;11.700;2023-04-23T12:19:16;24.50;38.50
63013;DHT22;62113;45.624;11.700;2023-04-23T12:21:47;24.60;38.80
63013;DHT22;62113;45.624;11.700;2023-04-23T12:24:14;24.70;38.60
63013;DHT22;62113;45.624;11.700;2023-04-23T12:26:40;24.70;38.90
63013;DHT22;62113;45.624;11.700;2023-04-23T12:29:06;24.70;37.50
63013;DHT22;62113;45.624;11.700;2023-04-23T12:31:32;24.70;37.60
63013;DHT22;62113;45.624;11.700;2023-04-23T12:34:08;24.70;38.00
63013;DHT22;62113;45.624;11.700;2023-04-23T12:36:37;24.70;38.30
63013;DHT22;62113;45.624;11.700;2023-04-23T12:41:50;24.70;38.00
63013;DHT22;62113;45.624;11.700;2023-04-23T12:44:16;24.60;38.30
63013;DHT22;62113;45.624;11.700;2023-04-23T12:46:42;24.50;38.30
63013;DHT22;62113;45.624;11.700;2023-04-23T12:49:08;24.50;38.90
63013;DHT22;62113;45.624;11.700;2023-04-23T12:51:33;24.50;38.20
63013;DHT22;62113;45.624;11.700;2023-04-23T12:53:59;24.50;37.80
63013;DHT22;62113;45.624;11.700;2023-04-23T12:56:25;24.60;38.20
63013;DHT22;62113;45.624;11.700;2023-04-23T12:58:51;24.60;36.50
63013;DHT22;62113;45.624;11.700;2023-04-23T13:01:17;24.70;37.10
63013;DHT22;62113;45.624;11.700;2023-04-23T13:03:42;24.70;37.10
63013;DHT22;62113;45.624;11.700;2023-04-23T13:06:08;24.80;37.20
63013;DHT22;62113;45.624;11.700;2023-04-23T13:08:34;24.80;36.80
63013;DHT22;62113;45.624;11.700;2023-04-23T13:10:59;24.80;36.80
63013;DHT22;62113;45.624;11.700;2023-04-23T13:13:28;24.80;37.30
63013;DHT22;62113;45.624;11.700;2023-04-23T13:15:54;24.90;37.00
63013;DHT22;62113;45.624;11.700;2023-04-23T13:18:20;24.90;37.40
63013;DHT22;62113;45.624;11.700;2023-04-23T13:20:47;24.90;36.70
63013;DHT22;62113;45.624;11.700;2023-04-23T13:23:13;24.90;36.50
63013;DHT22;62113;45.624;11.700;2023-04-23T13:25:38;24.70;36.00
63013;DHT22;62113;45.624;11.700;2023-04-23T13:28:04;24.70;35.90
63013;DHT22;62113;45.624;11.700;2023-04-23T13:30:30;24.80;36.80
63013;DHT22;62113;45.624;11.700;2023-04-23T13:32:55;24.90;36.50
63013;DHT22;62113;45.624;11.700;2023-04-23T13:35:23;24.80;35.50
63013;DHT22;62113;45.624;11.700;2023-04-23T13:37:49;24.80;35.80
63013;DHT22;62113;45.624;11.700;2023-04-23T13:40:14;24.70;36.00
63013;DHT22;62113;45.624;11.700;2023-04-23T13:42:40;24.70;36.00
63013;DHT22;62113;45.624;11.700;2023-04-23T13:45:06;24.70;36.00
63013;DHT22;62113;45.624;11.700;2023-04-23T13:47:32;24.70;36.30
63013;DHT22;62113;45.624;11.700;2023-04-23T13:49:59;24.70;36.40
63013;DHT22;62113;45.624;11.700;2023-04-23T13:52:29;24.80;36.00
63013;DHT22;62113;45.624;11.700;2023-04-23T13:54:56;24.70;35.00
63013;DHT22;62113;45.624;11.700;2023-04-23T13:57:22;24.70;35.90
63013;DHT22;62113;45.624;11.700;2023-04-23T13:59:48;24.80;36.00
63013;DHT22;62113;45.624;11.700;2023-04-23T14:02:14;24.90;36.00
63013;DHT22;62113;45.624;11.700;2023-04-23T14:04:40;25.00;36.10
63013;DHT22;62113;45.624;11.700;2023-04-23T14:07:05;25.00;35.40
63013;DHT22;62113;45.624;11.700;2023-04-23T14:09:31;25.00;35.90
63013;DHT22;62113;45.624;11.700;2023-04-23T14:11:57;25.00;36.40
63013;DHT22;62113;45.624;11.700;2023-04-23T14:14:22;24.90;35.70
63013;DHT22;62113;45.624;11.700;2023-04-23T14:16:48;24.70;36.50
63013;DHT22;62113;45.624;11.700;2023-04-23T14:19:14;24.60;36.40
63013;DHT22;62113;45.624;11.700;2023-04-23T14:21:40;24.40;36.70
63013;DHT22;62113;45.624;11.700;2023-04-23T14:24:16;24.40;37.20
63013;DHT22;62113;45.624;11.700;2023-04-23T14:26:42;24.50;37.70
63013;DHT22;62113;45.624;11.700;2023-04-23T14:31:54;24.50;37.30
63013;DHT22;62113;45.624;11.700;2023-04-23T14:34:20;24.50;36.70
63013;DHT22;62113;45.624;11.700;2023-04-23T14:36:47;24.50;38.40
63013;DHT22;62113;45.624;11.700;2023-04-23T14:39:16;24.40;37.50
63013;DHT22;62113;45.624;11.700;2023-04-23T14:41:42;24.30;37.90
63013;DHT22;62113;45.624;11.700;2023-04-23T14:44:07;24.10;38.50
63013;DHT22;62113;45.624;11.700;2023-04-23T14:46:33;24.00;38.00
63013;DHT22;62113;45.624;11.700;2023-04-23T14:48:59;24.00;40.00
63013;DHT22;62113;45.624;11.700;2023-04-23T14:51:24;24.00;40.10
63013;DHT22;62113;45.624;11.700;2023-04-23T14:53:51;24.00;40.20
63013;DHT22;62113;45.624;11.700;2023-04-23T14:56:17;24.20;40.40
63013;DHT22;62113;45.624;11.700;2023-04-23T14:58:43;24.20;39.90
63013;DHT22;62113;45.624;11.700;2023-04-23T15:01:09;24.30;40.00
63013;DHT22;62113;45.624;11.700;2023-04-23T15:03:35;24.20;39.00
63013;DHT22;62113;45.624;11.700;2023-04-23T15:06:02;24.20;39.90
63013;DHT22;62113;45.624;11.700;2023-04-23T15:08:27;24.20;39.90
63013;DHT22;62113;45.624;11.700;2023-04-23T15:10:53;24.20;40.40
63013;DHT22;62113;45.624;11.700;2023-04-23T15:16:01;24.10;40.40
63013;DHT22;62113;45.624;11.700;2023-04-23T15:18:28;24.10;41.70
63013;DHT22;62113;45.624;11.700;2023-04-23T15:20:53;24.10;41.30
63013;DHT22;62113;45.624;11.700;2023-04-23T15:23:19;24.00;41.90
63013;DHT22;62113;45.624;11.700;2023-04-23T15:25:48;24.00;41.70
63013;DHT22;62113;45.624;11.700;2023-04-23T15:28:13;24.00;41.90